map of CSN home
CSN - Airport
Location
City:  Carson City, Nevada, United States
Name:Carson Airport
ICAO:KCXP
IATA:CSN
FAA LID:CXP

Details
Type:Airport (Airfield)
Use:Public/Civil
Latitude:3911'32"N (39.192306)
Longitude:11943'57"W (-119.732582)
Datum:WGS 1984
Elevation:4704 ft (1434 m)
Variation:13.22E (WMM2015 magnetic declination)
-0.10 annual change
Runways:1
Longest:6101 × 75 ft (1860 × 23 m), paved

Time
Time Zone:UTC-8 (DST-7)
Local Time:

Weather
METAR:KCXP 181935Z AUTO 07011KT 10SM OVC055 05/01 A3030 RMK AO2
TAF:KCXP 181730Z 1818/1918 08011KT P6SM VCSH SCT025 BKN040 BKN070
FM190500 VRB04KT P6SM SCT030 BKN060
FM191000 VRB03KT P6SM SCT040 BKN100

Related Locations
Nearby:
Farthest:FTU: 11189 mi / 18007 km
Tolagnaro [Maurillac Airport (Fort Dauphin Airport)], MG

Find:

   beyond  
but within

Other Information
Maps:
NOTAMs:
Links:
Sources:

  
  • flag of United States
  • flag of Nevada
  

Airport Diagram

Airport diagram for CSN

Airport diagram PDF from FAA

Sectional Chart

Flight Planning
at skyvector.com

Satellite Image

Google Maps Satellite view

 

Copyright © 2004-2019 Karl L. Swartz. All rights reserved.
The Great Circle Mapper name and logo are trademarks of the Great Circle Mapper.
All other trademarks mentioned herein belong to their respective owners.
Please see credits for attibutions and further copyright information.

  Follow gcmap on Facebook Follow gcmap on Twitter Follow gcmap on Google+ GCmap on LinkedIn

hCard Microformat

Geo Microformat